Terminal Aerodrome Forecast
Issued by NWS Albany, NY

Current Version | Previous Version | Text Only | Print | Product List | Glossary On
Versions: 1 2 3 4 5 6 7 8 9 10 11 12 13 14 15 16 17 18 19
271
FTUS41 KALY 091720
TAFPOU
TAF
KPOU 091720Z 0918/1018 02004KT P6SM FEW030 SCT060
      TEMPO 0918/0922 BKN025 OVC050
     FM100000 VRB03KT 2SM -SHSN BR BKN015 OVC025
     FM101300 27006KT 2SM -SHSN BR SCT025 OVC050=

USA.gov is the U.S. government's official web portal to all federal, state and local government web resources and services.